Weather at Indian Creek US Forest Service Airport

Public forecast

Using degrees Fahrenheit for public forecast. Weather courtesy of forecast.io.

Closest aviation weather report (METAR) to Indian Creek US Forest Service Airport

Closest report is Challis Airport, 40.6 nm (75.2 km) ESE. Retrieved 2021/09/28 18:55 UTC (54 minutes ago):

KLLJ 281855Z AUTO 31009KT 10SM OVC095 12/M03 A2993 RMK AO2 PK WND 29030/1808 SLP103 T01221028

Closest aviation forecast (TAF) to Indian Creek US Forest Service Airport

Closest forecast is McCall Municipal Airport, 43.0 nm (79.7 km) W. Retrieved 2021/09/28 18:42 UTC (1 hour ago):

TAF KMYL 281740Z 2818/2918 VRB04KT 1SM -SHSN VV008 FM281830 28007KT P6SM VCSH BKN020 OVC050 FM290300 31008KT P6SM SCT040 FM290800 00000KT 1/4SM FZFG VV001 FM291600 VRB03KT P6SM SKC